Time,TemperatureF,DewpointF,PressureIn,WindDirection,WindDirectionDegrees,WindSpeedMPH,WindSpeedGustMPH,Humidity,HourlyPrecipIn,Conditions,Clouds,dailyrainin,SoftwareType,DateUTC
2014-01-05 00:00:00,52.0,29.0,29.90,SSW,195,0.0,0.0,41,0.00,,,0.00,Wunderground v.1.15,2014-01-05 07:00:00,
2014-01-05 00:10:00,51.7,28.7,29.90,NNE,18,0.0,1.0,41,0.00,,,0.00,Wunderground v.1.15,2014-01-05 07:10:00,
2014-01-05 00:15:00,51.7,28.7,29.90,North,359,1.0,1.0,41,0.00,,,0.00,Wunderground v.1.15,2014-01-05 07:15:00,
2014-01-05 00:20:00,51.8,28.8,29.90,NE,34,2.0,3.0,41,0.00,,,0.00,Wunderground v.1.15,2014-01-05 07:20:00,
2014-01-05 00:25:00,52.0,28.4,29.89,NE,39,1.0,3.0,40,0.00,,,0.00,Wunderground v.1.15,2014-01-05 07:25:00,
2014-01-05 00:30:00,51.5,28.6,29.89,SE,142,0.0,0.0,41,0.00,,,0.00,Wunderground v.1.15,2014-01-05 07:30:00,
2014-01-05 00:40:00,50.9,27.4,29.89,SE,142,0.0,0.0,40,0.00,,,0.00,Wunderground v.1.15,2014-01-05 07:40:00,
2014-01-05 00:45:00,50.5,27.0,29.89,SE,142,0.0,0.0,40,0.00,,,0.00,Wunderground v.1.15,2014-01-05 07:45:00,
2014-01-05 00:50:00,50.8,27.3,29.89,SE,142,0.0,0.0,40,0.00,,,0.00,Wunderground v.1.15,2014-01-05 07:50:00,
2014-01-05 00:55:00,51.0,27.5,29.89,SE,141,0.0,1.0,40,0.00,,,0.00,Wunderground v.1.15,2014-01-05 07:55:00,
2014-01-05 01:00:00,51.1,27.6,29.89,NNW,333,1.0,2.0,40,0.00,,,0.00,Wunderground v.1.15,2014-01-05 08:00:00,
2014-01-05 01:10:00,52.5,27.6,29.89,NW,319,3.0,4.0,38,0.00,,,0.00,Wunderground v.1.15,2014-01-05 08:10:00,
2014-01-05 01:20:00,52.6,27.0,29.89,NW,316,4.0,4.0,37,0.00,,,0.00,Wunderground v.1.15,2014-01-05 08:20:00,
2014-01-05 01:25:00,52.8,27.2,29.89,NW,325,4.0,4.0,37,0.00,,,0.00,Wunderground v.1.15,2014-01-05 08:25:00,
2014-01-05 01:30:00,52.8,26.6,29.90,NW,323,4.0,4.0,36,0.00,,,0.00,Wunderground v.1.15,2014-01-05 08:30:00,
2014-01-05 01:35:00,52.9,26.6,29.90,NW,315,3.0,4.0,36,0.00,,,0.00,Wunderground v.1.15,2014-01-05 08:35:00,
2014-01-05 01:40:00,52.4,26.2,29.90,NNW,334,4.0,5.0,36,0.00,,,0.00,Wunderground v.1.15,2014-01-05 08:40:00,
2014-01-05 01:50:00,52.2,26.0,29.90,NNW,333,4.0,5.0,36,0.00,,,0.00,Wunderground v.1.15,2014-01-05 08:50:00,
2014-01-05 01:55:00,52.1,25.9,29.90,NW,316,5.0,5.0,36,0.00,,,0.00,Wunderground v.1.15,2014-01-05 08:55:00,
2014-01-05 02:00:00,52.3,26.1,29.90,NW,325,5.0,5.0,36,0.00,,,0.00,Wunderground v.1.15,2014-01-05 09:00:00,
2014-01-05 02:05:00,52.4,26.2,29.90,NW,319,4.0,5.0,36,0.00,,,0.00,Wunderground v.1.15,2014-01-05 09:05:00,
2014-01-05 02:10:00,52.5,26.3,29.90,NNW,335,4.0,4.0,36,0.00,,,0.00,Wunderground v.1.15,2014-01-05 09:10:00,
2014-01-05 02:20:00,51.5,26.7,29.90,NW,322,6.0,8.0,38,0.00,,,0.00,Wunderground v.1.15,2014-01-05 09:20:00,
2014-01-05 02:25:00,51.2,26.4,29.90,NNW,327,7.0,8.0,38,0.00,,,0.00,Wunderground v.1.15,2014-01-05 09:25:00,
2014-01-05 02:30:00,51.3,26.5,29.90,NW,326,6.0,6.0,38,0.00,,,0.00,Wunderground v.1.15,2014-01-05 09:30:00,
2014-01-05 02:35:00,51.2,26.4,29.90,NW,325,6.0,8.0,38,0.00,,,0.00,Wunderground v.1.15,2014-01-05 09:35:00,
2014-01-05 02:40:00,50.6,27.1,29.90,NNW,334,7.0,7.0,40,0.00,,,0.00,Wunderground v.1.15,2014-01-05 09:40:00,
2014-01-05 02:45:00,49.8,27.0,29.90,NW,321,7.0,8.0,41,0.00,,,0.00,Wunderground v.1.15,2014-01-05 09:45:00,
2014-01-05 02:55:00,49.9,27.1,29.90,NNW,328,8.0,9.0,41,0.00,,,0.00,Wunderground v.1.15,2014-01-05 09:55:00,
2014-01-05 03:00:00,50.0,27.2,29.90,NNW,334,9.0,9.0,41,0.00,,,0.00,Wunderground v.1.15,2014-01-05 10:00:00,
2014-01-05 03:05:00,49.9,27.1,29.90,NNW,338,8.0,9.0,41,0.00,,,0.00,Wunderground v.1.15,2014-01-05 10:05:00,
2014-01-05 03:10:00,50.2,28.0,29.91,NNW,336,7.0,7.0,42,0.00,,,0.00,Wunderground v.1.15,2014-01-05 10:10:00,
2014-01-05 03:20:00,49.7,26.9,29.91,NW,304,5.0,5.0,41,0.00,,,0.00,Wunderground v.1.15,2014-01-05 10:20:00,
2014-01-05 03:30:00,49.0,26.3,29.91,NW,311,4.0,4.0,41,0.00,,,0.00,Wunderground v.1.15,2014-01-05 10:30:00,
2014-01-05 03:35:00,48.8,26.7,29.91,NNW,327,4.0,4.0,42,0.00,,,0.00,Wunderground v.1.15,2014-01-05 10:35:00,
2014-01-05 03:40:00,48.1,26.6,29.91,NW,321,5.0,5.0,43,0.00,,,0.00,Wunderground v.1.15,2014-01-05 10:40:00,
2014-01-05 03:45:00,48.1,26.6,29.91,North,350,4.0,5.0,43,0.00,,,0.00,Wunderground v.1.15,2014-01-05 10:45:00,
2014-01-05 03:50:00,48.9,27.4,29.91,NNW,338,5.0,5.0,43,0.00,,,0.00,Wunderground v.1.15,2014-01-05 10:50:00,
2014-01-05 03:55:00,49.2,27.1,29.91,NNW,348,5.0,5.0,42,0.00,,,0.00,Wunderground v.1.15,2014-01-05 10:55:00,
2014-01-05 04:00:00,49.3,27.2,29.92,NW,322,4.0,5.0,42,0.00,,,0.00,Wunderground v.1.15,2014-01-05 11:00:00,
2014-01-05 04:05:00,49.8,27.6,29.92,NW,321,5.0,5.0,42,0.00,,,0.00,Wunderground v.1.15,2014-01-05 11:05:00,
2014-01-05 04:10:00,50.0,27.8,29.92,NW,326,4.0,4.0,42,0.00,,,0.00,Wunderground v.1.15,2014-01-05 11:10:00,
2014-01-05 04:15:00,50.6,27.7,29.92,WNW,301,2.0,4.0,41,0.00,,,0.00,Wunderground v.1.15,2014-01-05 11:15:00,
2014-01-05 04:25:00,47.9,27.6,29.92,SE,134,1.0,2.0,45,0.00,,,0.00,Wunderground v.1.15,2014-01-05 11:25:00,
2014-01-05 04:30:00,46.9,27.2,29.92,NW,308,1.0,1.0,46,0.00,,,0.00,Wunderground v.1.15,2014-01-05 11:30:00,
2014-01-05 04:35:00,47.2,27.5,29.91,NW,322,0.0,1.0,46,0.00,,,0.00,Wunderground v.1.15,2014-01-05 11:35:00,
2014-01-05 04:40:00,47.1,27.4,29.92,SW,220,1.0,1.0,46,0.00,,,0.00,Wunderground v.1.15,2014-01-05 11:40:00,
2014-01-05 04:45:00,47.3,27.0,29.91,NNW,330,2.0,4.0,45,0.00,,,0.00,Wunderground v.1.15,2014-01-05 11:45:00,
2014-01-05 04:50:00,47.1,26.8,29.91,NNW,333,5.0,7.0,45,0.00,,,0.00,Wunderground v.1.15,2014-01-05 11:50:00,
2014-01-05 04:55:00,47.0,26.7,29.91,NNW,342,5.0,7.0,45,0.00,,,0.00,Wunderground v.1.15,2014-01-05 11:55:00,
2014-01-05 05:00:00,47.3,26.5,29.91,NNW,348,5.0,5.0,44,0.00,,,0.00,Wunderground v.1.15,2014-01-05 12:00:00,
2014-01-05 05:05:00,47.8,26.4,29.91,NNW,346,6.0,6.0,43,0.00,,,0.00,Wunderground v.1.15,2014-01-05 12:05:00,
2014-01-05 05:10:00,48.0,26.0,29.92,North,350,5.0,6.0,42,0.00,,,0.00,Wunderground v.1.15,2014-01-05 12:10:00,
2014-01-05 05:15:00,48.1,26.6,29.92,North,8,4.0,6.0,43,0.00,,,0.00,Wunderground v.1.15,2014-01-05 12:15:00,
2014-01-05 05:20:00,48.0,26.5,29.92,North,8,3.0,3.0,43,0.00,,,0.00,Wunderground v.1.15,2014-01-05 12:20:00,
2014-01-05 05:30:00,47.9,26.5,29.92,NNE,18,1.0,1.0,43,0.00,,,0.00,Wunderground v.1.15,2014-01-05 12:30:00,
2014-01-05 05:35:00,48.0,26.5,29.93,NNE,13,0.0,1.0,43,0.00,,,0.00,Wunderground v.1.15,2014-01-05 12:35:00,
2014-01-05 05:45:00,47.4,26.0,29.93,NNE,13,1.0,2.0,43,0.00,,,0.00,Wunderground v.1.15,2014-01-05 12:45:00,
2014-01-05 05:50:00,47.1,25.7,29.93,NE,41,2.0,2.0,43,0.00,,,0.00,Wunderground v.1.15,2014-01-05 12:50:00,
2014-01-05 05:55:00,47.2,25.8,29.93,NW,316,1.0,2.0,43,0.00,,,0.00,Wunderground v.1.15,2014-01-05 12:55:00,
2014-01-05 06:00:00,47.5,25.5,29.94,NW,304,1.0,1.0,42,0.00,,,0.00,Wunderground v.1.15,2014-01-05 13:00:00,
2014-01-05 06:05:00,47.1,25.7,29.93,NW,321,3.0,5.0,43,0.00,,,0.00,Wunderground v.1.15,2014-01-05 13:05:00,
2014-01-05 06:15:00,47.7,24.5,29.94,NNW,333,7.0,8.0,40,0.00,,,0.00,Wunderground v.1.15,2014-01-05 13:15:00,
2014-01-05 06:20:00,47.9,24.1,29.94,NW,326,7.0,7.0,39,0.00,,,0.00,Wunderground v.1.15,2014-01-05 13:20:00,
2014-01-05 06:30:00,49.0,23.8,29.94,NNW,346,8.0,8.0,37,0.00,,,0.00,Wunderground v.1.15,2014-01-05 13:30:00,
2014-01-05 06:35:00,49.4,24.2,29.94,NNW,348,10.0,10.0,37,0.00,,,0.00,Wunderground v.1.15,2014-01-05 13:35:00,
2014-01-05 06:40:00,49.5,22.9,29.94,NW,326,11.0,11.0,35,0.00,,,0.00,Wunderground v.1.15,2014-01-05 13:40:00,
2014-01-05 06:50:00,49.4,20.7,29.95,North,349,14.0,14.0,32,0.00,,,0.00,Wunderground v.1.15,2014-01-05 13:50:00,
2014-01-05 06:55:00,49.2,19.8,29.95,NNW,339,12.0,14.0,31,0.00,,,0.00,Wunderground v.1.15,2014-01-05 13:55:00,
2014-01-05 07:00:00,49.3,19.9,29.95,NNW,346,11.0,11.0,31,0.00,,,0.00,Wunderground v.1.15,2014-01-05 14:00:00,
2014-01-05 07:05:00,49.0,18.9,29.95,NW,319,11.0,11.0,30,0.00,,,0.00,Wunderground v.1.15,2014-01-05 14:05:00,
2014-01-05 07:10:00,49.0,20.4,29.96,WSW,255,8.0,8.0,32,0.00,,,0.00,Wunderground v.1.15,2014-01-05 14:10:00,
2014-01-05 07:15:00,48.6,20.8,29.96,WSW,252,4.0,8.0,33,0.00,,,0.00,Wunderground v.1.15,2014-01-05 14:15:00,
2014-01-05 07:20:00,48.5,20.7,29.95,NNE,13,2.0,2.0,33,0.00,,,0.00,Wunderground v.1.15,2014-01-05 14:20:00,
2014-01-05 07:25:00,48.4,21.3,29.96,North,359,1.0,2.0,34,0.00,,,0.00,Wunderground v.1.15,2014-01-05 14:25:00,
2014-01-05 07:30:00,47.9,20.8,29.96,NW,311,1.0,1.0,34,0.00,,,0.00,Wunderground v.1.15,2014-01-05 14:30:00,
2014-01-05 07:35:00,48.0,20.9,29.96,NW,304,1.0,1.0,34,0.00,,,0.00,Wunderground v.1.15,2014-01-05 14:35:00,
2014-01-05 07:40:00,47.3,21.0,29.96,NNW,347,2.0,4.0,35,0.00,,,0.00,Wunderground v.1.15,2014-01-05 14:40:00,
2014-01-05 07:45:00,47.1,21.5,29.96,NNW,338,4.0,6.0,36,0.00,,,0.00,Wunderground v.1.15,2014-01-05 14:45:00,
2014-01-05 07:55:00,47.2,21.6,29.97,NNW,340,5.0,6.0,36,0.00,,,0.00,Wunderground v.1.15,2014-01-05 14:55:00,
2014-01-05 08:00:00,47.4,22.4,29.97,NNW,347,5.0,5.0,37,0.00,,,0.00,Wunderground v.1.15,2014-01-05 15:00:00,
2014-01-05 08:10:00,47.6,23.2,29.98,NW,326,4.0,5.0,38,0.00,,,0.00,Wunderground v.1.15,2014-01-05 15:10:00,
2014-01-05 08:15:00,47.5,22.5,29.98,North,352,4.0,5.0,37,0.00,,,0.00,Wunderground v.1.15,2014-01-05 15:15:00,
2014-01-05 08:20:00,47.7,22.7,29.99,North,6,3.0,3.0,37,0.00,,,0.00,Wunderground v.1.15,2014-01-05 15:20:00,
2014-01-05 08:25:00,48.2,20.4,29.99,NNE,19,4.0,12.0,33,0.00,,,0.00,Wunderground v.1.15,2014-01-05 15:25:00,
2014-01-05 08:30:00,48.8,18.7,29.99,NE,34,9.0,17.0,30,0.00,,,0.00,Wunderground v.1.15,2014-01-05 15:30:00,
2014-01-05 08:35:00,49.1,18.2,29.99,NNE,13,13.0,17.0,29,0.00,,,0.00,Wunderground v.1.15,2014-01-05 15:35:00,
2014-01-05 08:40:00,49.1,17.3,30.00,NNE,19,13.0,13.0,28,0.00,,,0.00,Wunderground v.1.15,2014-01-05 15:40:00,
2014-01-05 08:45:00,49.4,17.6,30.00,North,8,12.0,13.0,28,0.00,,,0.00,Wunderground v.1.15,2014-01-05 15:45:00,
2014-01-05 08:50:00,49.9,18.0,30.00,NNE,16,13.0,14.0,28,0.00,,,0.00,Wunderground v.1.15,2014-01-05 15:50:00,
2014-01-05 08:55:00,50.3,17.5,30.00,North,9,13.0,14.0,27,0.00,,,0.00,Wunderground v.1.15,2014-01-05 15:55:00,
2014-01-05 09:05:00,50.9,18.1,30.00,North,360,12.0,14.0,27,0.00,,,0.00,Wunderground v.1.15,2014-01-05 16:05:00,
2014-01-05 09:15:00,51.2,17.4,30.01,NNE,19,12.0,14.0,26,0.00,,,0.00,Wunderground v.1.15,2014-01-05 16:15:00,
2014-01-05 09:20:00,51.1,17.4,30.01,NNE,20,12.0,12.0,26,0.00,,,0.00,Wunderground v.1.15,2014-01-05 16:20:00,
2014-01-05 09:25:00,51.1,18.2,30.01,NNE,31,12.0,13.0,27,0.00,,,0.00,Wunderground v.1.15,2014-01-05 16:25:00,
2014-01-05 09:30:00,51.2,18.3,30.02,NNE,22,13.0,15.0,27,0.00,,,0.00,Wunderground v.1.15,2014-01-05 16:30:00,
2014-01-05 09:35:00,51.6,18.7,30.02,North,360,12.0,15.0,27,0.00,,,0.00,Wunderground v.1.15,2014-01-05 16:35:00,
2014-01-05 09:40:00,51.9,18.0,30.02,North,11,11.0,11.0,26,0.00,,,0.00,Wunderground v.1.15,2014-01-05 16:40:00,
2014-01-05 09:45:00,51.9,18.0,30.02,North,351,11.0,11.0,26,0.00,,,0.00,Wunderground v.1.15,2014-01-05 16:45:00,
2014-01-05 09:50:00,52.4,18.5,30.02,North,10,10.0,10.0,26,0.00,,,0.00,Wunderground v.1.15,2014-01-05 16:50:00,
2014-01-05 10:00:00,53.2,19.2,30.02,NNW,345,10.0,10.0,26,0.00,,,0.00,Wunderground v.1.15,2014-01-05 17:00:00,
2014-01-05 10:05:00,54.0,19.8,30.02,NNE,18,8.0,10.0,26,0.00,,,0.00,Wunderground v.1.15,2014-01-05 17:05:00,
2014-01-05 10:10:00,53.9,18.8,30.02,NNE,32,9.0,11.0,25,0.00,,,0.00,Wunderground v.1.15,2014-01-05 17:10:00,
2014-01-05 10:15:00,53.9,18.8,30.02,NNE,12,10.0,11.0,25,0.00,,,0.00,Wunderground v.1.15,2014-01-05 17:15:00,
2014-01-05 10:20:00,53.9,17.9,30.02,NNE,13,10.0,13.0,24,0.00,,,0.00,Wunderground v.1.15,2014-01-05 17:20:00,
2014-01-05 10:25:00,53.8,18.7,30.02,NNE,30,11.0,13.0,25,0.00,,,0.00,Wunderground v.1.15,2014-01-05 17:25:00,
2014-01-05 10:30:00,54.2,19.1,30.02,NNW,341,10.0,10.0,25,0.00,,,0.00,Wunderground v.1.15,2014-01-05 17:30:00,
2014-01-05 10:35:00,54.3,18.2,30.02,North,6,10.0,10.0,24,0.00,,,0.00,Wunderground v.1.15,2014-01-05 17:35:00,
2014-01-05 10:40:00,55.1,18.9,30.02,NNE,33,8.0,8.0,24,0.00,,,0.00,Wunderground v.1.15,2014-01-05 17:40:00,
2014-01-05 10:45:00,55.5,19.2,30.02,NE,49,6.0,8.0,24,0.00,,,0.00,Wunderground v.1.15,2014-01-05 17:45:00,
2014-01-05 10:50:00,55.7,19.4,30.02,NNE,15,7.0,7.0,24,0.00,,,0.00,Wunderground v.1.15,2014-01-05 17:50:00,
2014-01-05 10:55:00,55.9,18.6,30.02,NE,51,7.0,7.0,23,0.00,,,0.00,Wunderground v.1.15,2014-01-05 17:55:00,
2014-01-05 11:00:00,56.3,19.9,30.02,NE,51,6.0,7.0,24,0.00,,,0.00,Wunderground v.1.15,2014-01-05 18:00:00,
2014-01-05 11:10:00,56.5,18.1,30.02,North,355,6.0,6.0,22,0.00,,,0.00,Wunderground v.1.15,2014-01-05 18:10:00,
2014-01-05 11:15:00,56.8,18.3,30.02,NE,56,7.0,7.0,22,0.00,,,0.00,Wunderground v.1.15,2014-01-05 18:15:00,
2014-01-05 11:20:00,56.5,18.1,30.01,NE,46,7.0,11.0,22,0.00,,,0.00,Wunderground v.1.15,2014-01-05 18:20:00,
2014-01-05 11:25:00,56.2,18.8,30.01,ENE,57,8.0,11.0,23,0.00,,,0.00,Wunderground v.1.15,2014-01-05 18:25:00,
2014-01-05 11:30:00,56.4,18.0,30.01,NE,41,8.0,8.0,22,0.00,,,0.00,Wunderground v.1.15,2014-01-05 18:30:00,
2014-01-05 11:35:00,56.6,18.1,30.01,ENE,59,8.0,9.0,22,0.00,,,0.00,Wunderground v.1.15,2014-01-05 18:35:00,
2014-01-05 11:40:00,56.9,19.4,30.01,NE,46,8.0,11.0,23,0.00,,,0.00,Wunderground v.1.15,2014-01-05 18:40:00,
2014-01-05 11:45:00,56.7,19.3,30.00,NE,43,8.0,11.0,23,0.00,,,0.00,Wunderground v.1.15,2014-01-05 18:45:00,
2014-01-05 11:55:00,57.2,19.7,30.00,ENE,57,8.0,9.0,23,0.00,,,0.00,Wunderground v.1.15,2014-01-05 18:55:00,
2014-01-05 12:00:00,57.1,19.6,30.00,NNW,345,7.0,7.0,23,0.00,,,0.00,Wunderground v.1.15,2014-01-05 19:00:00,
2014-01-05 12:05:00,57.2,20.7,30.00,ENE,65,6.0,7.0,24,0.00,,,0.00,Wunderground v.1.15,2014-01-05 19:05:00,
2014-01-05 12:15:00,57.8,20.2,29.99,NE,50,4.0,5.0,23,0.00,,,0.00,Wunderground v.1.15,2014-01-05 19:15:00,
2014-01-05 12:20:00,58.0,19.3,29.98,SSE,148,6.0,6.0,22,0.00,,,0.00,Wunderground v.1.15,2014-01-05 19:20:00,
2014-01-05 12:25:00,58.2,20.5,29.98,NNW,339,6.0,6.0,23,0.00,,,0.00,Wunderground v.1.15,2014-01-05 19:25:00,
2014-01-05 12:30:00,58.2,20.5,29.98,NE,47,5.0,5.0,23,0.00,,,0.00,Wunderground v.1.15,2014-01-05 19:30:00,
2014-01-05 12:35:00,58.3,19.6,29.97,SE,129,4.0,5.0,22,0.00,,,0.00,Wunderground v.1.15,2014-01-05 19:35:00,
2014-01-05 12:40:00,58.6,19.8,29.97,NE,34,4.0,10.0,22,0.00,,,0.00,Wunderground v.1.15,2014-01-05 19:40:00,
2014-01-05 12:45:00,58.6,18.7,29.97,NNW,344,4.0,10.0,21,0.00,,,0.00,Wunderground v.1.15,2014-01-05 19:45:00,
2014-01-05 12:50:00,58.9,19.0,29.97,NE,53,4.0,5.0,21,0.00,,,0.00,Wunderground v.1.15,2014-01-05 19:50:00,
2014-01-05 12:55:00,59.0,19.1,29.96,ENE,74,4.0,8.0,21,0.00,,,0.00,Wunderground v.1.15,2014-01-05 19:55:00,
2014-01-05 13:00:00,58.6,17.6,29.96,NE,56,6.0,6.0,20,0.00,,,0.00,Wunderground v.1.15,2014-01-05 20:00:00,
2014-01-05 13:05:00,58.6,16.4,29.96,ENE,62,6.0,6.0,19,0.00,,,0.00,Wunderground v.1.15,2014-01-05 20:05:00,
2014-01-05 13:10:00,59.1,18.0,29.96,NE,34,4.0,4.0,20,0.00,,,0.00,Wunderground v.1.15,2014-01-05 20:10:00,
2014-01-05 13:20:00,59.2,16.9,29.96,ENE,68,6.0,6.0,19,0.00,,,0.00,Wunderground v.1.15,2014-01-05 20:20:00,
2014-01-05 13:25:00,59.5,18.3,29.95,East,79,5.0,6.0,20,0.00,,,0.00,Wunderground v.1.15,2014-01-05 20:25:00,
2014-01-05 13:35:00,59.4,17.1,29.95,East,86,4.0,5.0,19,0.00,,,0.00,Wunderground v.1.15,2014-01-05 20:35:00,
2014-01-05 13:40:00,59.8,17.4,29.95,East,101,3.0,7.0,19,0.00,,,0.00,Wunderground v.1.15,2014-01-05 20:40:00,
2014-01-05 13:45:00,59.9,17.5,29.95,SE,135,4.0,7.0,19,0.00,,,0.00,Wunderground v.1.15,2014-01-05 20:45:00,
2014-01-05 13:50:00,60.2,18.9,29.95,SE,141,4.0,5.0,20,0.00,,,0.00,Wunderground v.1.15,2014-01-05 20:50:00,
2014-01-05 13:55:00,60.2,26.9,29.95,SE,129,4.0,5.0,28,0.00,,,0.00,Wunderground v.1.15,2014-01-05 20:55:00,
2014-01-05 14:05:00,60.8,27.5,29.95,SW,214,4.0,6.0,28,0.00,,,0.00,Wunderground v.1.15,2014-01-05 21:05:00,
2014-01-05 14:15:00,61.0,26.7,29.95,SW,218,6.0,8.0,27,0.00,,,0.00,Wunderground v.1.15,2014-01-05 21:15:00,
2014-01-05 14:20:00,60.5,28.1,29.95,SW,214,6.0,6.0,29,0.00,,,0.00,Wunderground v.1.15,2014-01-05 21:20:00,
2014-01-05 14:25:00,60.6,28.1,29.95,SSW,193,5.0,7.0,29,0.00,,,0.00,Wunderground v.1.15,2014-01-05 21:25:00,
2014-01-05 14:30:00,60.8,28.3,29.94,South,190,5.0,6.0,29,0.00,,,0.00,Wunderground v.1.15,2014-01-05 21:30:00,
2014-01-05 14:35:00,60.1,28.5,29.95,SW,219,7.0,8.0,30,0.00,,,0.00,Wunderground v.1.15,2014-01-05 21:35:00,
2014-01-05 14:45:00,59.9,28.4,29.94,SSE,163,6.0,7.0,30,0.00,,,0.00,Wunderground v.1.15,2014-01-05 21:45:00,
2014-01-05 14:50:00,60.0,28.4,29.94,SSW,203,6.0,6.0,30,0.00,,,0.00,Wunderground v.1.15,2014-01-05 21:50:00,
2014-01-05 15:00:00,59.9,28.4,29.95,WSW,255,5.0,5.0,30,0.00,,,0.00,Wunderground v.1.15,2014-01-05 22:00:00,
2014-01-05 15:05:00,59.6,28.9,29.95,SW,214,4.0,5.0,31,0.00,,,0.00,Wunderground v.1.15,2014-01-05 22:05:00,
2014-01-05 15:10:00,59.6,29.7,29.95,SW,219,5.0,5.0,32,0.00,,,0.00,Wunderground v.1.15,2014-01-05 22:10:00,
2014-01-05 15:20:00,59.3,29.4,29.95,SW,219,6.0,6.0,32,0.00,,,0.00,Wunderground v.1.15,2014-01-05 22:20:00,
2014-01-05 15:25:00,59.1,29.2,29.95,SSW,208,6.0,8.0,32,0.00,,,0.00,Wunderground v.1.15,2014-01-05 22:25:00,
2014-01-05 15:30:00,59.2,29.3,29.95,WSW,250,6.0,6.0,32,0.00,,,0.00,Wunderground v.1.15,2014-01-05 22:30:00,
2014-01-05 15:35:00,59.1,29.2,29.95,SW,236,5.0,7.0,32,0.00,,,0.00,Wunderground v.1.15,2014-01-05 22:35:00,
2014-01-05 15:45:00,59.1,29.2,29.95,SW,225,6.0,6.0,32,0.00,,,0.00,Wunderground v.1.15,2014-01-05 22:45:00,
2014-01-05 15:50:00,59.5,28.8,29.95,SW,236,4.0,4.0,31,0.00,,,0.00,Wunderground v.1.15,2014-01-05 22:50:00,
2014-01-05 15:55:00,59.6,28.9,29.95,SW,236,4.0,4.0,31,0.00,,,0.00,Wunderground v.1.15,2014-01-05 22:55:00,
2014-01-05 16:00:00,59.5,28.8,29.95,WNW,283,4.0,4.0,31,0.00,,,0.00,Wunderground v.1.15,2014-01-05 23:00:00,
2014-01-05 16:05:00,59.6,28.1,29.95,North,358,3.0,4.0,30,0.00,,,0.00,Wunderground v.1.15,2014-01-05 23:05:00,
2014-01-05 16:10:00,59.7,28.2,29.95,WNW,287,2.0,2.0,30,0.00,,,0.00,Wunderground v.1.15,2014-01-05 23:10:00,
2014-01-05 16:15:00,59.3,28.6,29.95,NW,323,3.0,4.0,31,0.00,,,0.00,Wunderground v.1.15,2014-01-05 23:15:00,
2014-01-05 16:25:00,58.7,29.6,29.95,WNW,297,4.0,4.0,33,0.00,,,0.00,Wunderground v.1.15,2014-01-05 23:25:00,
2014-01-05 16:30:00,58.7,29.6,29.95,NNW,334,4.0,4.0,33,0.00,,,0.00,Wunderground v.1.15,2014-01-05 23:30:00,
2014-01-05 16:35:00,58.4,30.1,29.96,West,263,3.0,4.0,34,0.00,,,0.00,Wunderground v.1.15,2014-01-05 23:35:00,
2014-01-05 16:40:00,58.2,29.9,29.96,NNE,19,4.0,4.0,34,0.00,,,0.00,Wunderground v.1.15,2014-01-05 23:40:00,
2014-01-05 16:45:00,57.9,30.4,29.96,WNW,298,3.0,4.0,35,0.00,,,0.00,Wunderground v.1.15,2014-01-05 23:45:00,
2014-01-05 16:55:00,57.1,29.7,29.95,WNW,284,3.0,3.0,35,0.00,,,0.00,Wunderground v.1.15,2014-01-05 23:55:00,
2014-01-05 17:00:00,56.7,29.3,29.96,WNW,291,3.0,4.0,35,0.00,,,0.00,Wunderground v.1.15,2014-01-06 00:00:00,
2014-01-05 17:05:00,56.4,29.1,29.96,NW,307,3.0,4.0,35,0.00,,,0.00,Wunderground v.1.15,2014-01-06 00:05:00,
2014-01-05 17:10:00,56.2,28.2,29.95,NW,307,4.0,6.0,34,0.00,,,0.00,Wunderground v.1.15,2014-01-06 00:10:00,
2014-01-05 17:15:00,56.1,28.8,29.96,WNW,298,5.0,8.0,35,0.00,,,0.00,Wunderground v.1.15,2014-01-06 00:15:00,
2014-01-05 17:20:00,55.8,28.5,29.96,WNW,295,6.0,6.0,35,0.00,,,0.00,Wunderground v.1.15,2014-01-06 00:20:00,
2014-01-05 17:25:00,55.6,27.6,29.96,NW,318,6.0,8.0,34,0.00,,,0.00,Wunderground v.1.15,2014-01-06 00:25:00,
2014-01-05 17:30:00,55.3,27.4,29.96,NW,309,6.0,6.0,34,0.00,,,0.00,Wunderground v.1.15,2014-01-06 00:30:00,
2014-01-05 17:35:00,55.1,27.2,29.97,NNW,330,5.0,6.0,34,0.00,,,0.00,Wunderground v.1.15,2014-01-06 00:35:00,
2014-01-05 17:40:00,54.9,24.8,29.97,North,10,4.0,4.0,31,0.00,,,0.00,Wunderground v.1.15,2014-01-06 00:40:00,
2014-01-05 17:50:00,54.7,23.0,29.97,SE,131,2.0,2.0,29,0.00,,,0.00,Wunderground v.1.15,2014-01-06 00:50:00,
2014-01-05 17:55:00,54.4,23.6,29.97,SW,217,1.0,2.0,30,0.00,,,0.00,Wunderground v.1.15,2014-01-06 00:55:00,
2014-01-05 18:00:00,53.9,23.1,29.97,West,262,1.0,2.0,30,0.00,,,0.00,Wunderground v.1.15,2014-01-06 01:00:00,
2014-01-05 18:05:00,53.8,23.8,29.97,WNW,287,2.0,2.0,31,0.00,,,0.00,Wunderground v.1.15,2014-01-06 01:05:00,
2014-01-05 18:10:00,53.2,24.1,29.98,North,356,1.0,1.0,32,0.00,,,0.00,Wunderground v.1.15,2014-01-06 01:10:00,
2014-01-05 18:15:00,52.6,25.0,29.98,South,172,0.0,1.0,34,0.00,,,0.00,Wunderground v.1.15,2014-01-06 01:15:00,
2014-01-05 18:20:00,51.8,26.3,29.98,South,172,0.0,0.0,37,0.00,,,0.00,Wunderground v.1.15,2014-01-06 01:20:00,
2014-01-05 18:25:00,51.4,26.6,29.98,South,172,0.0,0.0,38,0.00,,,0.00,Wunderground v.1.15,2014-01-06 01:25:00,
2014-01-05 18:30:00,51.3,25.9,29.98,SW,231,0.0,0.0,37,0.00,,,0.00,Wunderground v.1.15,2014-01-06 01:30:00,
2014-01-05 18:40:00,52.6,20.4,29.98,North,360,2.0,4.0,28,0.00,,,0.00,Wunderground v.1.15,2014-01-06 01:40:00,
2014-01-05 18:45:00,53.5,18.5,29.98,NNW,343,5.0,5.0,25,0.00,,,0.00,Wunderground v.1.15,2014-01-06 01:45:00,
2014-01-05 18:50:00,53.8,15.8,29.99,NNW,348,6.0,7.0,22,0.00,,,0.00,Wunderground v.1.15,2014-01-06 01:50:00,
2014-01-05 18:55:00,54.3,12.8,29.98,NW,313,7.0,7.0,19,0.00,,,0.00,Wunderground v.1.15,2014-01-06 01:55:00,
2014-01-05 19:00:00,54.7,12.0,29.99,North,355,9.0,9.0,18,0.00,,,0.00,Wunderground v.1.15,2014-01-06 02:00:00,
2014-01-05 19:05:00,54.8,12.0,29.99,NNE,15,8.0,9.0,18,0.00,,,0.00,Wunderground v.1.15,2014-01-06 02:05:00,
2014-01-05 19:15:00,54.9,10.8,29.99,North,353,7.0,10.0,17,0.00,,,0.00,Wunderground v.1.15,2014-01-06 02:15:00,
2014-01-05 19:20:00,54.7,10.7,29.99,North,4,7.0,7.0,17,0.00,,,0.00,Wunderground v.1.15,2014-01-06 02:20:00,
2014-01-05 19:25:00,54.6,9.2,30.00,NNW,327,6.0,7.0,16,0.00,,,0.00,Wunderground v.1.15,2014-01-06 02:25:00,
2014-01-05 19:30:00,54.7,9.3,30.00,NW,326,6.0,8.0,16,0.00,,,0.00,Wunderground v.1.15,2014-01-06 02:30:00,
2014-01-05 19:40:00,55.0,6.6,30.00,NNE,18,8.0,8.0,14,0.00,,,0.00,Wunderground v.1.15,2014-01-06 02:40:00,
2014-01-05 19:45:00,55.1,5.0,30.00,NNW,343,8.0,8.0,13,0.00,,,0.00,Wunderground v.1.15,2014-01-06 02:45:00,
2014-01-05 19:50:00,55.1,3.3,30.01,North,6,7.0,8.0,12,0.00,,,0.00,Wunderground v.1.15,2014-01-06 02:50:00,
2014-01-05 19:55:00,55.5,1.7,30.01,NNE,26,7.0,8.0,11,0.00,,,0.00,Wunderground v.1.15,2014-01-06 02:55:00,
2014-01-05 20:00:00,55.6,1.8,30.01,NNE,19,8.0,10.0,11,0.00,,,0.00,Wunderground v.1.15,2014-01-06 03:00:00,
2014-01-05 20:10:00,55.5,1.7,30.01,NNE,25,8.0,8.0,11,0.00,,,0.00,Wunderground v.1.15,2014-01-06 03:10:00,
2014-01-05 20:15:00,55.3,3.5,30.02,NE,49,7.0,8.0,12,0.00,,,0.00,Wunderground v.1.15,2014-01-06 03:15:00,
2014-01-05 20:25:00,54.8,3.1,30.02,NNE,24,6.0,11.0,12,0.00,,,0.00,Wunderground v.1.15,2014-01-06 03:25:00,
2014-01-05 20:30:00,54.6,4.6,30.02,NNE,27,6.0,6.0,13,0.00,,,0.00,Wunderground v.1.15,2014-01-06 03:30:00,
2014-01-05 20:35:00,54.5,4.6,30.02,NE,37,8.0,12.0,13,0.00,,,0.00,Wunderground v.1.15,2014-01-06 03:35:00,
2014-01-05 20:40:00,54.5,4.6,30.02,North,354,10.0,10.0,13,0.00,,,0.00,Wunderground v.1.15,2014-01-06 03:40:00,
2014-01-05 20:45:00,54.2,5.9,30.02,North,4,11.0,16.0,14,0.00,,,0.00,Wunderground v.1.15,2014-01-06 03:45:00,
2014-01-05 20:50:00,54.0,8.7,30.02,NNE,23,12.0,12.0,16,0.00,,,0.00,Wunderground v.1.15,2014-01-06 03:50:00,
2014-01-05 21:00:00,53.0,10.6,30.02,NNW,333,13.0,15.0,18,0.00,,,0.00,Wunderground v.1.15,2014-01-06 04:00:00,
2014-01-05 21:05:00,52.0,12.1,30.03,NNW,347,12.0,15.0,20,0.00,,,0.00,Wunderground v.1.15,2014-01-06 04:05:00,
2014-01-05 21:10:00,51.5,11.7,30.02,NNW,341,12.0,12.0,20,0.00,,,0.00,Wunderground v.1.15,2014-01-06 04:10:00,
2014-01-05 21:15:00,51.7,9.5,30.02,NNE,13,13.0,13.0,18,0.00,,,0.00,Wunderground v.1.15,2014-01-06 04:15:00,
2014-01-05 21:25:00,51.4,8.0,30.03,ENE,60,12.0,14.0,17,0.00,,,0.00,Wunderground v.1.15,2014-01-06 04:25:00,
2014-01-05 21:30:00,51.6,6.8,30.03,North,354,13.0,13.0,16,0.00,,,0.00,Wunderground v.1.15,2014-01-06 04:30:00,
2014-01-05 21:40:00,51.9,0.8,30.02,NNE,23,15.0,19.0,12,0.00,,,0.00,Wunderground v.1.15,2014-01-06 04:40:00,
2014-01-05 21:45:00,52.0,-1.0,30.02,North,355,17.0,19.0,11,0.00,,,0.00,Wunderground v.1.15,2014-01-06 04:45:00,
2014-01-05 21:50:00,52.1,-2.9,30.02,NNE,15,17.0,17.0,10,0.00,,,0.00,Wunderground v.1.15,2014-01-06 04:50:00,
2014-01-05 21:55:00,51.9,-1.1,30.02,North,8,18.0,18.0,11,0.00,,,0.00,Wunderground v.1.15,2014-01-06 04:55:00,
2014-01-05 22:05:00,52.2,-7.5,30.03,NNE,13,14.0,23.0,8,0.00,,,0.00,Wunderground v.1.15,2014-01-06 05:05:00,
2014-01-05 22:10:00,52.4,-7.4,30.03,NE,39,14.0,14.0,8,0.00,,,0.00,Wunderground v.1.15,2014-01-06 05:10:00,
2014-01-05 22:15:00,52.1,-5.1,30.03,North,10,15.0,15.0,9,0.00,,,0.00,Wunderground v.1.15,2014-01-06 05:15:00,
2014-01-05 22:20:00,51.8,-7.8,30.03,NNE,12,15.0,19.0,8,0.00,,,0.00,Wunderground v.1.15,2014-01-06 05:20:00,
2014-01-05 22:25:00,51.7,-7.9,30.04,North,357,15.0,19.0,8,0.00,,,0.00,Wunderground v.1.15,2014-01-06 05:25:00,
2014-01-05 22:30:00,51.4,-5.7,30.04,NNE,19,16.0,16.0,9,0.00,,,0.00,Wunderground v.1.15,2014-01-06 05:30:00,
2014-01-05 22:35:00,51.4,-8.1,30.04,NNE,31,17.0,23.0,8,0.00,,,0.00,Wunderground v.1.15,2014-01-06 05:35:00,
2014-01-05 22:40:00,51.0,-8.4,30.04,NE,40,18.0,19.0,8,0.00,,,0.00,Wunderground v.1.15,2014-01-06 05:40:00,
2014-01-05 22:45:00,50.8,-8.6,30.04,NE,44,17.0,19.0,8,0.00,,,0.00,Wunderground v.1.15,2014-01-06 05:45:00,
2014-01-05 22:55:00,50.6,-6.3,30.04,NE,47,17.0,17.0,9,0.00,,,0.00,Wunderground v.1.15,2014-01-06 05:55:00,
2014-01-05 23:00:00,50.4,-6.4,30.04,NNE,31,15.0,16.0,9,0.00,,,0.00,Wunderground v.1.15,2014-01-06 06:00:00,
2014-01-05 23:10:00,50.0,-4.6,30.04,NE,45,16.0,19.0,10,0.00,,,0.00,Wunderground v.1.15,2014-01-06 06:10:00,
2014-01-05 23:15:00,49.8,-4.7,30.04,NE,38,16.0,19.0,10,0.00,,,0.00,Wunderground v.1.15,2014-01-06 06:15:00,
2014-01-05 23:20:00,49.7,-4.8,30.03,NNE,15,18.0,23.0,10,0.00,,,0.00,Wunderground v.1.15,2014-01-06 06:20:00,
2014-01-05 23:25:00,49.7,-4.8,30.04,ENE,66,18.0,23.0,10,0.00,,,0.00,Wunderground v.1.15,2014-01-06 06:25:00,
2014-01-05 23:30:00,49.6,-4.9,30.04,NE,40,17.0,17.0,10,0.00,,,0.00,Wunderground v.1.15,2014-01-06 06:30:00,
2014-01-05 23:35:00,49.4,-5.0,30.04,North,359,14.0,17.0,10,0.00,,,0.00,Wunderground v.1.15,2014-01-06 06:35:00,
2014-01-05 23:40:00,49.4,-5.0,30.04,NNW,338,13.0,13.0,10,0.00,,,0.00,Wunderground v.1.15,2014-01-06 06:40:00,
2014-01-05 23:45:00,49.4,-5.0,30.04,NNE,23,12.0,17.0,10,0.00,,,0.00,Wunderground v.1.15,2014-01-06 06:45:00,
2014-01-05 23:50:00,49.6,-7.1,30.05,NNE,22,12.0,14.0,9,0.00,,,0.00,Wunderground v.1.15,2014-01-06 06:50:00,